createdAt,value
2023-01-10T00:01:39.736Z,10.50
2023-01-10T00:04:06.351Z,10.15
2023-01-10T00:06:33.171Z,7.95
2023-01-10T00:08:59.853Z,6.75
2023-01-10T00:11:45.505Z,5.00
2023-01-10T00:14:12.348Z,14.73
2023-01-10T00:16:39.568Z,8.55
2023-01-10T00:19:08.454Z,10.60
2023-01-10T00:21:35.266Z,7.65
2023-01-10T00:24:13.718Z,11.30
2023-01-10T00:26:40.548Z,8.30
2023-01-10T00:29:08.016Z,14.82
2023-01-10T00:31:35.839Z,8.52
2023-01-10T00:34:02.456Z,6.95
2023-01-10T00:36:29.129Z,8.10
2023-01-10T00:38:55.753Z,4.63
2023-01-10T00:41:40.728Z,14.57
2023-01-10T00:44:09.026Z,8.50
2023-01-10T00:46:35.746Z,5.68
2023-01-10T00:49:05.530Z,5.35
2023-01-10T00:51:32.156Z,9.45
2023-01-10T00:53:58.999Z,7.45
2023-01-10T00:56:25.789Z,8.65
2023-01-10T00:58:53.662Z,9.68
2023-01-10T01:01:20.427Z,7.78
2023-01-10T01:03:47.343Z,8.77
2023-01-10T01:06:13.955Z,9.65
2023-01-10T01:08:41.644Z,7.65
2023-01-10T01:11:08.305Z,12.85
2023-01-10T01:13:34.966Z,5.13
2023-01-10T01:16:02.104Z,8.98
2023-01-10T01:18:29.393Z,7.47
2023-01-10T01:20:58.009Z,7.80
2023-01-10T01:23:24.948Z,17.98
2023-01-10T01:25:55.095Z,11.88
2023-01-10T01:28:23.341Z,11.13
2023-01-10T01:30:50.725Z,9.18
2023-01-10T01:33:18.025Z,11.23
2023-01-10T01:35:47.043Z,14.63
2023-01-10T01:38:14.543Z,8.30
2023-01-10T01:40:41.861Z,7.70
2023-01-10T01:43:27.036Z,9.10
2023-01-10T01:45:54.149Z,7.25
2023-01-10T01:48:29.036Z,7.25
2023-01-10T01:51:14.626Z,11.05
2023-01-10T01:53:41.213Z,3.85
2023-01-10T01:56:19.112Z,19.25
2023-01-10T01:59:02.459Z,10.30
2023-01-10T02:01:31.144Z,6.35
2023-01-10T02:04:08.566Z,8.60
2023-01-10T02:06:35.451Z,8.38
2023-01-10T02:09:41.607Z,9.13
2023-01-10T02:12:11.051Z,10.93
2023-01-10T02:14:38.538Z,5.55
2023-01-10T02:17:05.908Z,8.60
2023-01-10T02:19:47.868Z,7.05
2023-01-10T02:22:43.729Z,7.43
2023-01-10T02:25:28.954Z,6.22
2023-01-10T02:28:13.883Z,3.83
2023-01-10T02:31:05.644Z,8.30
2023-01-10T02:34:18.527Z,10.40
2023-01-10T02:37:09.113Z,5.72
2023-01-10T02:39:54.431Z,6.60
2023-01-10T02:42:39.664Z,4.13
2023-01-10T02:45:42.372Z,9.85
2023-01-10T02:48:09.460Z,12.95
2023-01-10T02:50:41.827Z,13.00
2023-01-10T02:53:14.632Z,12.57
2023-01-10T02:55:44.150Z,7.68
2023-01-10T02:58:16.917Z,14.25
2023-01-10T03:01:20.353Z,8.60
2023-01-10T03:03:51.281Z,14.75
2023-01-10T03:06:32.631Z,12.32
2023-01-10T03:09:13.814Z,7.57
2023-01-10T03:11:44.777Z,7.15
2023-01-10T03:14:33.254Z,10.05
2023-01-10T03:17:06.516Z,12.02
2023-01-10T03:19:44.823Z,5.43
2023-01-10T03:22:13.132Z,13.70
2023-01-10T03:24:49.566Z,7.72
2023-01-10T03:27:19.314Z,12.68
2023-01-10T03:30:00.308Z,5.53
2023-01-10T03:32:29.954Z,10.77
2023-01-10T03:34:58.999Z,12.23
2023-01-10T03:37:47.586Z,9.82
2023-01-10T03:40:27.244Z,10.50
2023-01-10T03:43:23.572Z,9.73
2023-01-10T03:46:21.969Z,10.10
2023-01-10T03:48:49.587Z,9.55
2023-01-10T03:51:18.141Z,6.68
2023-01-10T03:53:45.096Z,9.02
2023-01-10T03:56:15.572Z,17.63
2023-01-10T03:58:42.380Z,17.02
2023-01-10T04:01:09.074Z,9.48
2023-01-10T04:03:35.810Z,8.52
2023-01-10T04:06:03.766Z,14.85
2023-01-10T04:08:30.377Z,8.35
2023-01-10T04:10:56.969Z,10.80
2023-01-10T04:13:23.789Z,8.30
2023-01-10T04:15:51.573Z,5.55
2023-01-10T04:18:19.238Z,11.15
2023-01-10T04:20:47.082Z,8.73
2023-01-10T04:23:13.820Z,8.15
2023-01-10T04:25:40.677Z,12.63
2023-01-10T04:28:07.252Z,5.95
2023-01-10T04:30:34.005Z,8.77
2023-01-10T04:33:00.646Z,8.77
2023-01-10T04:35:27.206Z,8.25
2023-01-10T04:37:53.982Z,8.23
2023-01-10T04:40:23.544Z,7.20
2023-01-10T04:42:50.229Z,10.68
2023-01-10T04:45:18.484Z,9.52
2023-01-10T04:47:49.824Z,11.25
2023-01-10T04:50:16.744Z,7.75
2023-01-10T04:52:43.636Z,7.63
2023-01-10T04:55:10.563Z,9.27
2023-01-10T04:57:37.181Z,12.07
2023-01-10T05:00:04.302Z,5.93
2023-01-10T05:02:31.061Z,7.00
2023-01-10T05:04:57.700Z,10.60
2023-01-10T05:07:24.363Z,9.63
2023-01-10T05:09:50.955Z,9.18
2023-01-10T05:12:18.025Z,11.10
2023-01-10T05:14:44.658Z,10.00
2023-01-10T05:17:11.380Z,10.27
2023-01-10T05:19:56.979Z,13.70
2023-01-10T05:22:23.647Z,7.40
2023-01-10T05:24:50.545Z,9.88
2023-01-10T05:27:17.620Z,8.15
2023-01-10T05:29:44.877Z,11.43
2023-01-10T05:32:11.657Z,7.05
2023-01-10T05:34:38.427Z,14.65
2023-01-10T05:37:05.066Z,7.68
2023-01-10T05:39:31.715Z,7.72
2023-01-10T05:41:58.334Z,9.50
2023-01-10T05:44:24.969Z,11.55
2023-01-10T05:46:51.805Z,8.20
2023-01-10T05:49:18.544Z,7.50
2023-01-10T05:51:45.129Z,12.65
2023-01-10T05:54:11.823Z,9.82
2023-01-10T05:56:38.880Z,9.02
2023-01-10T05:59:14.015Z,10.43
2023-01-10T06:01:43.823Z,14.57
2023-01-10T06:04:10.467Z,10.13
2023-01-10T06:06:37.104Z,6.18
2023-01-10T06:09:03.919Z,19.08
2023-01-10T06:11:30.572Z,7.18
2023-01-10T06:13:58.440Z,8.57
2023-01-10T06:16:25.500Z,13.82
2023-01-10T06:18:52.218Z,12.27
2023-01-10T06:21:18.940Z,7.53
2023-01-10T06:23:45.590Z,12.82
2023-01-10T06:26:12.911Z,9.68
2023-01-10T06:28:41.572Z,12.45
2023-01-10T06:31:08.678Z,8.60
2023-01-10T06:33:35.645Z,9.90
2023-01-10T06:36:02.579Z,19.55
2023-01-10T06:38:29.223Z,10.25
2023-01-10T06:40:55.961Z,12.18
2023-01-10T06:43:24.571Z,10.20
2023-01-10T06:45:52.370Z,16.00
2023-01-10T06:48:18.944Z,14.10
2023-01-10T06:50:45.594Z,11.55
2023-01-10T06:53:13.206Z,17.35
2023-01-10T06:55:39.963Z,14.02
2023-01-10T06:58:06.721Z,15.55
2023-01-10T07:00:33.664Z,9.65
2023-01-10T07:03:02.187Z,8.00
2023-01-10T07:05:30.462Z,11.43
2023-01-10T07:07:58.333Z,10.00
2023-01-10T07:10:24.963Z,13.05
2023-01-10T07:12:55.184Z,17.77
2023-01-10T07:15:21.795Z,16.45
2023-01-10T07:17:50.933Z,18.60
2023-01-10T07:20:17.769Z,8.57
2023-01-10T07:22:45.507Z,23.17
2023-01-10T07:25:12.111Z,22.77
2023-01-10T07:27:43.470Z,12.27
2023-01-10T07:30:11.038Z,20.23
2023-01-10T07:32:37.617Z,17.95
2023-01-10T07:35:04.634Z,12.00
2023-01-10T07:37:31.184Z,17.20
2023-01-10T07:39:57.913Z,15.95
2023-01-10T07:42:24.720Z,12.50
2023-01-10T07:44:52.266Z,11.05
2023-01-10T07:47:18.924Z,11.35
2023-01-10T07:49:45.593Z,10.73
2023-01-10T07:52:12.231Z,10.65
2023-01-10T07:54:38.894Z,15.20
2023-01-10T07:57:05.440Z,11.20
2023-01-10T07:59:32.069Z,18.05
2023-01-10T08:01:58.776Z,17.92
2023-01-10T08:04:25.445Z,12.82
2023-01-10T08:06:54.767Z,14.40
2023-01-10T08:09:21.366Z,12.73
2023-01-10T08:11:48.099Z,14.30
2023-01-10T08:14:14.720Z,13.13
2023-01-10T08:16:41.337Z,13.70
2023-01-10T08:19:08.061Z,14.90
2023-01-10T08:21:34.805Z,12.48
2023-01-10T08:24:01.509Z,14.00
2023-01-10T08:26:28.094Z,17.13
2023-01-10T08:28:54.741Z,18.42
2023-01-10T08:31:21.496Z,15.05
2023-01-10T08:33:48.164Z,14.98
2023-01-10T08:36:19.608Z,12.50
2023-01-10T08:38:46.569Z,14.48
2023-01-10T08:41:13.836Z,9.65
2023-01-10T08:43:40.761Z,13.13
2023-01-10T08:46:08.005Z,11.75
2023-01-10T08:48:34.791Z,14.30
2023-01-10T08:51:08.336Z,12.95
2023-01-10T08:53:35.185Z,16.48
2023-01-10T08:56:03.727Z,14.35
2023-01-10T08:58:32.148Z,11.65
2023-01-10T09:01:00.219Z,18.13
2023-01-10T09:03:26.895Z,14.82
2023-01-10T09:05:53.544Z,16.45
2023-01-10T09:08:20.133Z,17.25
2023-01-10T09:10:48.423Z,12.30
2023-01-10T09:13:15.732Z,22.63
2023-01-10T09:15:43.628Z,15.32
2023-01-10T09:18:12.548Z,20.63
2023-01-10T09:20:41.279Z,13.23
2023-01-10T09:23:18.947Z,9.43
2023-01-10T09:25:47.744Z,17.83
2023-01-10T09:28:14.793Z,8.70
2023-01-10T09:30:43.325Z,12.68
2023-01-10T09:33:10.400Z,18.75
2023-01-10T09:35:39.317Z,15.60
2023-01-10T09:38:10.525Z,12.77
2023-01-10T09:40:52.526Z,17.55
2023-01-10T09:43:40.345Z,17.33
2023-01-10T09:46:13.010Z,13.70
2023-01-10T09:48:55.329Z,20.58
2023-01-10T09:51:24.668Z,16.52
2023-01-10T09:53:57.821Z,19.10
2023-01-10T09:56:29.577Z,14.15
2023-01-10T09:58:58.727Z,15.68
2023-01-10T10:01:32.470Z,15.98
2023-01-10T10:04:28.769Z,14.45
2023-01-10T10:06:55.531Z,22.10
2023-01-10T10:09:35.263Z,15.48
2023-01-10T10:12:31.232Z,14.40
2023-01-10T10:15:22.357Z,16.80
2023-01-10T10:18:07.552Z,10.98
2023-01-10T10:20:57.919Z,11.25
2023-01-10T10:23:39.541Z,12.77
2023-01-10T10:26:06.133Z,17.70
2023-01-10T10:28:54.875Z,19.45
2023-01-10T10:31:45.093Z,12.73
2023-01-10T10:34:14.597Z,12.40
2023-01-10T10:37:00.804Z,12.02
2023-01-10T10:39:41.886Z,20.55
2023-01-10T10:42:13.993Z,17.92
2023-01-10T10:44:52.905Z,16.50
2023-01-10T10:47:22.501Z,10.40
2023-01-10T10:50:27.154Z,12.68
2023-01-10T10:52:53.911Z,19.02
2023-01-10T10:55:29.501Z,11.38
2023-01-10T10:58:00.412Z,16.90
2023-01-10T11:00:28.944Z,18.48
2023-01-10T11:03:05.063Z,12.60
2023-01-10T11:05:42.885Z,22.35
2023-01-10T11:08:15.475Z,16.83
2023-01-10T11:10:47.158Z,16.27
2023-01-10T11:13:32.813Z,20.77
2023-01-10T11:16:05.753Z,12.35
2023-01-10T11:18:34.289Z,15.50
2023-01-10T11:21:06.549Z,19.80
2023-01-10T11:23:39.100Z,10.20
2023-01-10T11:26:51.417Z,17.10
2023-01-10T11:29:39.718Z,15.38
2023-01-10T11:32:16.935Z,15.35
2023-01-10T11:34:54.070Z,21.00
2023-01-10T11:37:25.259Z,10.55
2023-01-10T11:40:15.015Z,19.10
2023-01-10T11:42:42.170Z,17.30
2023-01-10T11:45:17.721Z,11.60
2023-01-10T11:48:01.860Z,12.90
2023-01-10T11:50:32.316Z,10.63
2023-01-10T11:52:59.252Z,10.27
2023-01-10T11:55:29.320Z,14.60
2023-01-10T11:58:15.255Z,20.98
2023-01-10T12:00:46.475Z,23.58
2023-01-10T12:03:37.496Z,11.10
2023-01-10T12:06:14.382Z,13.90
2023-01-10T12:11:17.549Z,18.38
2023-01-10T12:13:50.295Z,18.17
2023-01-10T12:16:25.711Z,15.80
2023-01-10T12:18:56.010Z,15.63
2023-01-10T12:21:39.456Z,13.68
2023-01-10T12:24:14.821Z,22.80
2023-01-10T12:26:42.617Z,13.95
2023-01-10T12:29:15.956Z,16.88
2023-01-10T12:31:42.645Z,13.60
2023-01-10T12:34:20.484Z,18.15
2023-01-10T12:37:01.192Z,17.02
2023-01-10T12:39:41.434Z,9.32
2023-01-10T12:42:26.487Z,10.05
2023-01-10T12:45:12.149Z,13.68
2023-01-10T12:48:00.349Z,15.05
2023-01-10T12:50:44.753Z,11.90
2023-01-10T12:53:35.810Z,14.23
2023-01-10T12:56:07.919Z,11.68
2023-01-10T12:58:45.284Z,19.17
2023-01-10T13:01:16.907Z,14.75
2023-01-10T13:03:45.714Z,15.25
2023-01-10T13:06:28.494Z,26.40
2023-01-10T13:08:57.436Z,17.52
2023-01-10T13:11:28.010Z,11.73
2023-01-10T13:14:00.970Z,12.23
2023-01-10T13:16:42.907Z,20.35
2023-01-10T13:19:12.357Z,21.20
2023-01-10T13:21:40.985Z,12.27
2023-01-10T13:24:24.222Z,10.45
2023-01-10T13:26:59.534Z,13.18
2023-01-10T13:29:30.424Z,19.17
2023-01-10T13:32:00.704Z,14.02
2023-01-10T13:34:33.592Z,11.00
2023-01-10T13:37:13.602Z,12.52
2023-01-10T13:39:46.152Z,16.75
2023-01-10T13:42:44.026Z,13.38
2023-01-10T13:47:39.933Z,19.67
2023-01-10T13:50:33.752Z,15.43
2023-01-10T13:53:08.119Z,13.52
2023-01-10T13:55:43.675Z,15.23
2023-01-10T13:58:16.174Z,22.17
2023-01-10T14:01:10.705Z,11.13
2023-01-10T14:03:39.083Z,9.82
2023-01-10T14:06:16.181Z,14.18
2023-01-10T14:08:51.315Z,13.43
2023-01-10T14:11:18.739Z,15.27
2023-01-10T14:13:58.021Z,18.30
2023-01-10T14:16:36.326Z,14.48
2023-01-10T14:19:07.074Z,10.02
2023-01-10T14:21:45.461Z,11.43
2023-01-10T14:24:50.854Z,15.65
2023-01-10T14:27:21.081Z,10.38
2023-01-10T14:29:53.418Z,12.27
2023-01-10T14:32:41.301Z,10.65
2023-01-10T14:35:15.671Z,18.33
2023-01-10T14:37:57.894Z,8.77
2023-01-10T14:40:41.099Z,14.77
2023-01-10T14:43:14.062Z,10.15
2023-01-10T14:45:45.518Z,11.43
2023-01-10T14:48:51.216Z,15.70
2023-01-10T14:51:31.252Z,16.30
2023-01-10T14:54:01.493Z,11.38
2023-01-10T14:56:38.566Z,11.10
2023-01-10T14:59:31.973Z,9.27
2023-01-10T15:02:10.016Z,16.05
2023-01-10T15:04:36.912Z,10.35
2023-01-10T15:07:12.464Z,12.75
2023-01-10T15:09:39.405Z,7.10
2023-01-10T15:12:12.649Z,18.00
2023-01-10T15:14:39.644Z,13.60
2023-01-10T15:17:09.173Z,11.00
2023-01-10T15:19:38.362Z,19.02
2023-01-10T15:22:31.022Z,13.15
2023-01-10T15:25:11.674Z,18.98
2023-01-10T15:27:49.750Z,21.67
2023-01-10T15:30:25.670Z,13.32
2023-01-10T15:32:55.835Z,10.50
2023-01-10T15:35:35.377Z,20.60
2023-01-10T15:38:26.544Z,9.38
2023-01-10T15:41:02.618Z,14.20
2023-01-10T15:43:30.874Z,13.82
2023-01-10T15:46:00.182Z,14.02
2023-01-10T15:48:29.961Z,10.85
2023-01-10T15:51:14.103Z,10.00
2023-01-10T15:54:32.621Z,10.68
2023-01-10T15:57:17.656Z,11.98
2023-01-10T15:59:50.213Z,14.93
2023-01-10T16:02:32.129Z,11.68
2023-01-10T16:05:07.833Z,9.95
2023-01-10T16:07:43.324Z,9.52
2023-01-10T16:10:13.062Z,13.85
2023-01-10T16:13:31.671Z,16.65
2023-01-10T16:16:00.367Z,10.45
2023-01-10T16:18:27.686Z,13.00
2023-01-10T16:20:57.706Z,10.65
2023-01-10T16:23:27.827Z,8.60
2023-01-10T16:26:00.250Z,7.57
2023-01-10T16:28:30.865Z,15.50
2023-01-10T16:30:58.499Z,8.10
2023-01-10T16:33:27.826Z,13.18
2023-01-10T16:35:56.986Z,10.93
2023-01-10T16:38:24.852Z,8.52
2023-01-10T16:40:55.194Z,7.30
2023-01-10T16:43:21.955Z,13.18
2023-01-10T16:46:03.949Z,10.35
2023-01-10T16:48:32.041Z,12.85
2023-01-10T16:51:30.389Z,7.60
2023-01-10T16:53:57.026Z,7.05
2023-01-10T16:56:28.505Z,10.63
2023-01-10T16:58:55.900Z,6.55
2023-01-10T17:01:26.498Z,10.82
2023-01-10T17:03:53.557Z,8.23
2023-01-10T17:06:20.479Z,10.60
2023-01-10T17:08:47.243Z,9.05
2023-01-10T17:11:17.511Z,7.53
2023-01-10T17:13:45.868Z,6.93
2023-01-10T17:16:13.028Z,9.98
2023-01-10T17:18:39.877Z,11.23
2023-01-10T17:21:06.721Z,8.05
2023-01-10T17:23:33.473Z,10.98
2023-01-10T17:26:02.986Z,11.98
2023-01-10T17:28:30.317Z,7.93
2023-01-10T17:30:58.489Z,7.03
2023-01-10T17:33:26.755Z,12.20
2023-01-10T17:35:56.273Z,16.80
2023-01-10T17:38:24.418Z,10.80
2023-01-10T17:40:51.424Z,9.30
2023-01-10T17:43:19.323Z,15.80
2023-01-10T17:45:49.495Z,7.60
2023-01-10T17:48:18.462Z,10.75
2023-01-10T17:50:47.750Z,12.27
2023-01-10T17:53:16.629Z,10.70
2023-01-10T17:55:49.608Z,10.80
2023-01-10T17:58:18.334Z,5.90
2023-01-10T18:00:46.060Z,7.72
2023-01-10T18:03:13.191Z,12.90
2023-01-10T18:05:40.073Z,15.45
2023-01-10T18:08:08.120Z,5.30
2023-01-10T18:10:35.275Z,12.50
2023-01-10T18:13:03.599Z,9.55
2023-01-10T18:15:30.530Z,11.40
2023-01-10T18:17:57.962Z,9.80
2023-01-10T18:20:25.042Z,7.97
2023-01-10T18:23:10.347Z,8.50
2023-01-10T18:25:36.968Z,7.03
2023-01-10T18:28:03.720Z,6.10
2023-01-10T18:30:30.456Z,10.18
2023-01-10T18:32:57.781Z,7.25
2023-01-10T18:35:25.798Z,9.60
2023-01-10T18:37:52.607Z,5.88
2023-01-10T18:40:19.251Z,8.85
2023-01-10T18:42:47.100Z,7.40
2023-01-10T18:45:13.920Z,4.75
2023-01-10T18:47:40.558Z,5.00
2023-01-10T18:50:07.341Z,7.65
2023-01-10T18:52:33.971Z,3.03
2023-01-10T18:55:02.366Z,5.32
2023-01-10T18:57:32.522Z,4.57
2023-01-10T18:59:59.293Z,4.60
2023-01-10T19:02:26.173Z,5.15
2023-01-10T19:04:52.813Z,6.35
2023-01-10T19:07:19.470Z,3.20
2023-01-10T19:09:48.333Z,7.43
2023-01-10T19:12:15.031Z,5.60
2023-01-10T19:14:41.751Z,11.48
2023-01-10T19:17:08.414Z,12.10
2023-01-10T19:19:36.369Z,4.68
2023-01-10T19:22:03.137Z,6.45
2023-01-10T19:24:32.721Z,10.25
2023-01-10T19:26:59.442Z,4.50
2023-01-10T19:29:26.296Z,4.00
2023-01-10T19:31:53.390Z,3.10
2023-01-10T19:34:20.083Z,3.83
2023-01-10T19:36:47.045Z,5.00
2023-01-10T19:39:14.383Z,4.97
2023-01-10T19:41:41.761Z,5.07
2023-01-10T19:44:14.218Z,4.97
2023-01-10T19:46:41.735Z,5.40
2023-01-10T19:49:14.469Z,4.68
2023-01-10T19:51:41.328Z,2.38
2023-01-10T19:54:08.719Z,4.80
2023-01-10T19:56:35.916Z,5.63
2023-01-10T19:59:03.928Z,3.47
2023-01-10T20:01:31.982Z,4.40
2023-01-10T20:04:01.769Z,4.18
2023-01-10T20:06:31.087Z,3.95
2023-01-10T20:08:58.703Z,6.38
2023-01-10T20:11:26.683Z,4.55
2023-01-10T20:13:53.826Z,3.67
2023-01-10T20:16:22.925Z,3.25
2023-01-10T20:18:50.328Z,4.45
2023-01-10T20:21:18.917Z,2.97
2023-01-10T20:23:47.787Z,3.17
2023-01-10T20:26:20.855Z,3.38
2023-01-10T20:28:48.652Z,4.93
2023-01-10T20:31:19.664Z,3.65
2023-01-10T20:33:46.400Z,4.88
2023-01-10T20:36:17.102Z,3.00
2023-01-10T20:38:44.563Z,3.42
2023-01-10T20:41:11.176Z,2.45
2023-01-10T20:43:38.045Z,3.78
2023-01-10T20:46:10.995Z,3.10
2023-01-10T20:48:38.833Z,4.60
2023-01-10T20:51:06.461Z,3.33
2023-01-10T20:53:33.387Z,2.63
2023-01-10T20:56:08.604Z,4.28
2023-01-10T20:58:35.715Z,2.28
2023-01-10T21:01:05.590Z,3.83
2023-01-10T21:03:33.015Z,3.03
2023-01-10T21:06:01.131Z,3.55
2023-01-10T21:08:29.794Z,5.63
2023-01-10T21:10:57.828Z,5.30
2023-01-10T21:13:26.474Z,2.13
2023-01-10T21:15:55.492Z,3.15
2023-01-10T21:18:27.095Z,3.15
2023-01-10T21:20:56.064Z,2.10
2023-01-10T21:23:26.064Z,2.30
2023-01-10T21:25:53.756Z,2.50
2023-01-10T21:28:21.833Z,2.80
2023-01-10T21:30:49.067Z,2.78
2023-01-10T21:33:15.858Z,2.60
2023-01-10T21:35:42.633Z,2.97
2023-01-10T21:38:09.512Z,2.55
2023-01-10T21:40:36.239Z,2.55
2023-01-10T21:43:03.329Z,3.40
2023-01-10T21:45:30.049Z,3.00
2023-01-10T21:47:56.817Z,2.50
2023-01-10T21:50:24.164Z,2.13
2023-01-10T21:52:51.197Z,2.70
2023-01-10T21:55:17.936Z,3.30
2023-01-10T21:57:47.941Z,2.67
2023-01-10T22:00:33.834Z,3.00
2023-01-10T22:03:00.795Z,5.03
2023-01-10T22:05:27.753Z,5.45
2023-01-10T22:07:57.675Z,2.17
2023-01-10T22:10:24.353Z,3.28
2023-01-10T22:12:51.350Z,4.03
2023-01-10T22:15:18.053Z,3.17
2023-01-10T22:17:44.991Z,2.53
2023-01-10T22:20:12.905Z,4.15
2023-01-10T22:22:39.486Z,2.90
2023-01-10T22:25:06.935Z,3.05
2023-01-10T22:27:33.634Z,3.80
2023-01-10T22:30:00.497Z,2.78
2023-01-10T22:32:27.246Z,2.58
2023-01-10T22:34:53.895Z,3.25
2023-01-10T22:37:20.685Z,2.88
2023-01-10T22:39:48.774Z,3.38
2023-01-10T22:42:15.467Z,2.30
2023-01-10T22:44:42.287Z,2.50
2023-01-10T22:47:09.868Z,2.60
2023-01-10T22:49:36.669Z,3.90
2023-01-10T22:52:03.554Z,2.60
2023-01-10T22:54:30.285Z,2.67
2023-01-10T22:56:57.067Z,2.60
2023-01-10T22:59:23.670Z,2.67
2023-01-10T23:01:50.532Z,2.10
2023-01-10T23:04:20.188Z,2.30
2023-01-10T23:06:47.089Z,3.20
2023-01-10T23:09:13.791Z,2.15
2023-01-10T23:11:40.485Z,2.38
2023-01-10T23:14:07.272Z,2.00
2023-01-10T23:16:34.054Z,2.47
2023-01-10T23:19:01.067Z,2.20
2023-01-10T23:21:29.379Z,2.45
2023-01-10T23:23:56.621Z,3.90
2023-01-10T23:26:23.742Z,3.63
2023-01-10T23:28:51.671Z,2.20
2023-01-10T23:31:21.732Z,2.38
2023-01-10T23:33:49.681Z,2.05
2023-01-10T23:36:17.169Z,2.42
2023-01-10T23:38:44.188Z,2.55
2023-01-10T23:41:11.179Z,2.40
2023-01-10T23:43:38.000Z,2.10
2023-01-10T23:46:06.129Z,2.88
2023-01-10T23:48:33.323Z,2.28
2023-01-10T23:51:00.150Z,2.10
2023-01-10T23:53:27.178Z,2.00
2023-01-10T23:55:54.042Z,2.33
2023-01-10T23:58:21.616Z,2.25
